sensor_id;sensor_type;location;lat;lon;timestamp;P1;durP1;ratioP1;P2;durP2;ratioP2
4210;SDS011;2119;48.828;12.396;2023-02-20T00:01:32;2.83;;;2.50;;
4210;SDS011;2119;48.828;12.396;2023-02-20T00:06:32;3.40;;;2.33;;
4210;SDS011;2119;48.828;12.396;2023-02-20T00:11:32;4.03;;;3.03;;
4210;SDS011;2119;48.828;12.396;2023-02-20T00:16:33;3.90;;;3.00;;
4210;SDS011;2119;48.828;12.396;2023-02-20T00:21:33;3.60;;;2.70;;
4210;SDS011;2119;48.828;12.396;2023-02-20T00:26:33;4.50;;;2.33;;
4210;SDS011;2119;48.828;12.396;2023-02-20T00:31:33;3.43;;;3.10;;
4210;SDS011;2119;48.828;12.396;2023-02-20T00:36:33;3.10;;;2.80;;
4210;SDS011;2119;48.828;12.396;2023-02-20T00:41:36;4.53;;;3.05;;
4210;SDS011;2119;48.828;12.396;2023-02-20T00:46:37;5.27;;;3.23;;
4210;SDS011;2119;48.828;12.396;2023-02-20T00:51:37;3.57;;;3.10;;
4210;SDS011;2119;48.828;12.396;2023-02-20T00:56:38;3.55;;;2.65;;
4210;SDS011;2119;48.828;12.396;2023-02-20T01:01:39;3.50;;;3.00;;
4210;SDS011;2119;48.828;12.396;2023-02-20T01:06:41;5.07;;;3.17;;
4210;SDS011;2119;48.828;12.396;2023-02-20T01:11:42;4.50;;;3.50;;
4210;SDS011;2119;48.828;12.396;2023-02-20T01:16:46;7.40;;;4.03;;
4210;SDS011;2119;48.828;12.396;2023-02-20T01:21:47;4.83;;;4.07;;
4210;SDS011;2119;48.828;12.396;2023-02-20T01:26:48;6.27;;;4.50;;
4210;SDS011;2119;48.828;12.396;2023-02-20T01:31:49;4.73;;;4.33;;
4210;SDS011;2119;48.828;12.396;2023-02-20T01:36:52;5.50;;;4.27;;
4210;SDS011;2119;48.828;12.396;2023-02-20T01:41:54;6.57;;;4.60;;
4210;SDS011;2119;48.828;12.396;2023-02-20T01:46:56;6.07;;;5.33;;
4210;SDS011;2119;48.828;12.396;2023-02-20T01:51:59;6.00;;;3.90;;
4210;SDS011;2119;48.828;12.396;2023-02-20T01:57:02;7.10;;;4.30;;
4210;SDS011;2119;48.828;12.396;2023-02-20T02:02:06;5.97;;;4.37;;
4210;SDS011;2119;48.828;12.396;2023-02-20T02:07:08;6.33;;;3.77;;
4210;SDS011;2119;48.828;12.396;2023-02-20T02:12:09;3.77;;;3.47;;
4210;SDS011;2119;48.828;12.396;2023-02-20T02:22:43;9.00;;;4.23;;
4210;SDS011;2119;48.828;12.396;2023-02-20T02:43:16;5.43;;;3.67;;
4210;SDS011;2119;48.828;12.396;2023-02-20T02:53:23;4.50;;;4.10;;
4210;SDS011;2119;48.828;12.396;2023-02-20T02:58:23;5.38;;;4.78;;
4210;SDS011;2119;48.828;12.396;2023-02-20T03:03:29;8.40;;;4.30;;
4210;SDS011;2119;48.828;12.396;2023-02-20T03:08:33;8.70;;;4.40;;
4210;SDS011;2119;48.828;12.396;2023-02-20T03:13:38;6.93;;;4.40;;
4210;SDS011;2119;48.828;12.396;2023-02-20T03:18:59;7.37;;;4.90;;
4210;SDS011;2119;48.828;12.396;2023-02-20T03:24:00;5.13;;;4.63;;
4210;SDS011;2119;48.828;12.396;2023-02-20T03:29:09;5.30;;;4.43;;
4210;SDS011;2119;48.828;12.396;2023-02-20T03:34:19;7.07;;;5.10;;
4210;SDS011;2119;48.828;12.396;2023-02-20T03:39:46;4.40;;;4.00;;
4210;SDS011;2119;48.828;12.396;2023-02-20T03:45:07;4.70;;;4.30;;
4210;SDS011;2119;48.828;12.396;2023-02-20T03:55:29;6.13;;;4.20;;
4210;SDS011;2119;48.828;12.396;2023-02-20T04:00:32;8.67;;;3.73;;
4210;SDS011;2119;48.828;12.396;2023-02-20T04:05:36;3.90;;;3.50;;
4210;SDS011;2119;48.828;12.396;2023-02-20T04:10:43;7.33;;;4.00;;
4210;SDS011;2119;48.828;12.396;2023-02-20T04:15:44;3.80;;;3.30;;
4210;SDS011;2119;48.828;12.396;2023-02-20T04:20:45;5.70;;;3.70;;
4210;SDS011;2119;48.828;12.396;2023-02-20T04:26:11;7.83;;;4.23;;
4210;SDS011;2119;48.828;12.396;2023-02-20T04:31:14;5.00;;;4.20;;
4210;SDS011;2119;48.828;12.396;2023-02-20T04:41:22;4.93;;;3.80;;
4210;SDS011;2119;48.828;12.396;2023-02-20T04:46:22;7.30;;;4.20;;
4210;SDS011;2119;48.828;12.396;2023-02-20T04:51:22;6.88;;;4.32;;
4210;SDS011;2119;48.828;12.396;2023-02-20T04:56:22;4.60;;;3.67;;
4210;SDS011;2119;48.828;12.396;2023-02-20T05:01:26;5.38;;;4.35;;
4210;SDS011;2119;48.828;12.396;2023-02-20T05:06:27;8.60;;;5.20;;
4210;SDS011;2119;48.828;12.396;2023-02-20T05:11:27;7.68;;;4.47;;
4210;SDS011;2119;48.828;12.396;2023-02-20T05:16:28;6.40;;;4.60;;
4210;SDS011;2119;48.828;12.396;2023-02-20T05:21:28;6.60;;;3.97;;
4210;SDS011;2119;48.828;12.396;2023-02-20T05:26:48;6.20;;;3.97;;
4210;SDS011;2119;48.828;12.396;2023-02-20T05:31:49;5.97;;;5.37;;
4210;SDS011;2119;48.828;12.396;2023-02-20T05:36:50;5.97;;;4.33;;
4210;SDS011;2119;48.828;12.396;2023-02-20T05:41:50;5.90;;;5.10;;
4210;SDS011;2119;48.828;12.396;2023-02-20T05:46:52;6.85;;;5.72;;
4210;SDS011;2119;48.828;12.396;2023-02-20T05:51:55;14.53;;;8.17;;
4210;SDS011;2119;48.828;12.396;2023-02-20T05:56:58;5.70;;;5.10;;
4210;SDS011;2119;48.828;12.396;2023-02-20T06:01:58;8.93;;;4.77;;
4210;SDS011;2119;48.828;12.396;2023-02-20T06:07:06;5.47;;;4.97;;
4210;SDS011;2119;48.828;12.396;2023-02-20T06:12:06;5.10;;;4.17;;
4210;SDS011;2119;48.828;12.396;2023-02-20T06:17:06;7.07;;;5.43;;
4210;SDS011;2119;48.828;12.396;2023-02-20T06:22:07;5.25;;;4.03;;
4210;SDS011;2119;48.828;12.396;2023-02-20T06:27:07;7.70;;;4.67;;
4210;SDS011;2119;48.828;12.396;2023-02-20T06:32:07;8.67;;;5.73;;
4210;SDS011;2119;48.828;12.396;2023-02-20T06:37:07;6.97;;;6.30;;
4210;SDS011;2119;48.828;12.396;2023-02-20T06:42:08;8.77;;;7.20;;
4210;SDS011;2119;48.828;12.396;2023-02-20T06:47:08;10.48;;;6.90;;
4210;SDS011;2119;48.828;12.396;2023-02-20T06:52:11;7.60;;;5.47;;
4210;SDS011;2119;48.828;12.396;2023-02-20T06:57:12;4.47;;;4.07;;
4210;SDS011;2119;48.828;12.396;2023-02-20T07:02:16;4.60;;;3.85;;
4210;SDS011;2119;48.828;12.396;2023-02-20T07:07:17;8.20;;;5.90;;
4210;SDS011;2119;48.828;12.396;2023-02-20T07:17:38;6.33;;;5.00;;
4210;SDS011;2119;48.828;12.396;2023-02-20T07:28:07;7.80;;;6.07;;
4210;SDS011;2119;48.828;12.396;2023-02-20T07:33:08;4.15;;;3.40;;
4210;SDS011;2119;48.828;12.396;2023-02-20T07:38:08;6.40;;;3.23;;
4210;SDS011;2119;48.828;12.396;2023-02-20T07:43:08;4.00;;;3.60;;
4210;SDS011;2119;48.828;12.396;2023-02-20T07:48:18;6.38;;;4.25;;
4210;SDS011;2119;48.828;12.396;2023-02-20T07:53:19;4.77;;;3.93;;
4210;SDS011;2119;48.828;12.396;2023-02-20T07:58:22;7.80;;;4.77;;
4210;SDS011;2119;48.828;12.396;2023-02-20T08:03:22;7.03;;;5.70;;
4210;SDS011;2119;48.828;12.396;2023-02-20T08:08:22;9.33;;;6.20;;
4210;SDS011;2119;48.828;12.396;2023-02-20T08:13:24;5.23;;;4.67;;
4210;SDS011;2119;48.828;12.396;2023-02-20T08:18:30;5.27;;;4.70;;
4210;SDS011;2119;48.828;12.396;2023-02-20T08:23:30;6.20;;;5.60;;
4210;SDS011;2119;48.828;12.396;2023-02-20T08:28:31;5.80;;;3.70;;
4210;SDS011;2119;48.828;12.396;2023-02-20T08:33:31;3.30;;;2.97;;
4210;SDS011;2119;48.828;12.396;2023-02-20T08:38:32;6.93;;;3.70;;
4210;SDS011;2119;48.828;12.396;2023-02-20T08:43:39;6.10;;;3.50;;
4210;SDS011;2119;48.828;12.396;2023-02-20T08:48:41;3.73;;;3.37;;
4210;SDS011;2119;48.828;12.396;2023-02-20T08:53:42;4.23;;;3.80;;
4210;SDS011;2119;48.828;12.396;2023-02-20T08:58:42;6.85;;;5.05;;
4210;SDS011;2119;48.828;12.396;2023-02-20T09:03:42;7.40;;;4.90;;
4210;SDS011;2119;48.828;12.396;2023-02-20T09:08:47;13.98;;;4.25;;
4210;SDS011;2119;48.828;12.396;2023-02-20T09:13:47;5.40;;;3.20;;
4210;SDS011;2119;48.828;12.396;2023-02-20T09:18:50;5.83;;;3.77;;
4210;SDS011;2119;48.828;12.396;2023-02-20T09:23:50;4.00;;;3.20;;
4210;SDS011;2119;48.828;12.396;2023-02-20T09:28:58;11.27;;;3.80;;
4210;SDS011;2119;48.828;12.396;2023-02-20T09:33:58;8.70;;;3.93;;
4210;SDS011;2119;48.828;12.396;2023-02-20T09:39:00;6.73;;;3.93;;
4210;SDS011;2119;48.828;12.396;2023-02-20T09:44:05;4.67;;;3.30;;
4210;SDS011;2119;48.828;12.396;2023-02-20T09:54:21;4.50;;;3.30;;
4210;SDS011;2119;48.828;12.396;2023-02-20T09:59:38;11.20;;;4.07;;
4210;SDS011;2119;48.828;12.396;2023-02-20T10:04:47;7.23;;;3.90;;
4210;SDS011;2119;48.828;12.396;2023-02-20T10:09:48;4.47;;;3.33;;
4210;SDS011;2119;48.828;12.396;2023-02-20T10:15:04;4.87;;;3.20;;
4210;SDS011;2119;48.828;12.396;2023-02-20T10:20:21;4.50;;;3.27;;
4210;SDS011;2119;48.828;12.396;2023-02-20T10:25:37;5.37;;;3.60;;
4210;SDS011;2119;48.828;12.396;2023-02-20T10:41:06;2.97;;;2.72;;
4210;SDS011;2119;48.828;12.396;2023-02-20T10:51:10;5.60;;;3.57;;
4210;SDS011;2119;48.828;12.396;2023-02-20T11:01:30;3.50;;;3.20;;
4210;SDS011;2119;48.828;12.396;2023-02-20T11:06:44;6.40;;;3.17;;
4210;SDS011;2119;48.828;12.396;2023-02-20T11:11:45;4.80;;;3.60;;
4210;SDS011;2119;48.828;12.396;2023-02-20T11:21:50;4.20;;;2.90;;
4210;SDS011;2119;48.828;12.396;2023-02-20T11:26:50;37.47;;;3.77;;
4210;SDS011;2119;48.828;12.396;2023-02-20T11:31:59;7.50;;;2.73;;
4210;SDS011;2119;48.828;12.396;2023-02-20T11:37:14;4.63;;;3.20;;
4210;SDS011;2119;48.828;12.396;2023-02-20T11:42:15;6.43;;;2.63;;
4210;SDS011;2119;48.828;12.396;2023-02-20T11:47:19;3.33;;;3.03;;
4210;SDS011;2119;48.828;12.396;2023-02-20T11:52:21;12.07;;;3.30;;
4210;SDS011;2119;48.828;12.396;2023-02-20T11:57:25;3.70;;;2.00;;
4210;SDS011;2119;48.828;12.396;2023-02-20T12:02:26;3.63;;;2.73;;
4210;SDS011;2119;48.828;12.396;2023-02-20T12:12:34;3.30;;;2.10;;
4210;SDS011;2119;48.828;12.396;2023-02-20T12:23:05;4.93;;;3.30;;
4210;SDS011;2119;48.828;12.396;2023-02-20T12:28:20;6.10;;;3.57;;
4210;SDS011;2119;48.828;12.396;2023-02-20T12:38:48;4.00;;;2.60;;
4210;SDS011;2119;48.828;12.396;2023-02-20T12:59:39;2.13;;;1.93;;
4210;SDS011;2119;48.828;12.396;2023-02-20T13:04:53;2.83;;;2.50;;
4210;SDS011;2119;48.828;12.396;2023-02-20T13:09:58;2.23;;;2.03;;
4210;SDS011;2119;48.828;12.396;2023-02-20T13:30:25;2.97;;;2.20;;
4210;SDS011;2119;48.828;12.396;2023-02-20T13:40:41;5.40;;;2.90;;
4210;SDS011;2119;48.828;12.396;2023-02-20T13:45:45;3.53;;;1.80;;
4210;SDS011;2119;48.828;12.396;2023-02-20T13:50:46;3.10;;;2.00;;
4210;SDS011;2119;48.828;12.396;2023-02-20T13:55:50;2.33;;;1.90;;
4210;SDS011;2119;48.828;12.396;2023-02-20T14:00:51;2.50;;;1.70;;
4210;SDS011;2119;48.828;12.396;2023-02-20T14:11:09;4.03;;;2.87;;
4210;SDS011;2119;48.828;12.396;2023-02-20T14:16:28;4.00;;;2.50;;
4210;SDS011;2119;48.828;12.396;2023-02-20T14:21:29;3.83;;;2.10;;
4210;SDS011;2119;48.828;12.396;2023-02-20T14:26:31;3.60;;;1.93;;
4210;SDS011;2119;48.828;12.396;2023-02-20T14:31:37;2.00;;;1.53;;
4210;SDS011;2119;48.828;12.396;2023-02-20T14:41:58;4.17;;;1.60;;
4210;SDS011;2119;48.828;12.396;2023-02-20T14:47:08;1.63;;;1.53;;
4210;SDS011;2119;48.828;12.396;2023-02-20T14:57:23;2.53;;;1.63;;
4210;SDS011;2119;48.828;12.396;2023-02-20T15:02:25;3.17;;;1.60;;
4210;SDS011;2119;48.828;12.396;2023-02-20T15:07:27;2.13;;;1.60;;
4210;SDS011;2119;48.828;12.396;2023-02-20T15:12:38;2.10;;;1.73;;
4210;SDS011;2119;48.828;12.396;2023-02-20T15:17:41;1.93;;;1.40;;
4210;SDS011;2119;48.828;12.396;2023-02-20T15:22:42;2.57;;;1.53;;
4210;SDS011;2119;48.828;12.396;2023-02-20T15:33:06;2.97;;;2.77;;
4210;SDS011;2119;48.828;12.396;2023-02-20T15:38:07;2.93;;;1.40;;
4210;SDS011;2119;48.828;12.396;2023-02-20T15:43:13;2.43;;;1.87;;
4210;SDS011;2119;48.828;12.396;2023-02-20T15:48:14;9.30;;;1.60;;
4210;SDS011;2119;48.828;12.396;2023-02-20T15:53:22;2.40;;;1.40;;
4210;SDS011;2119;48.828;12.396;2023-02-20T15:58:35;2.50;;;1.60;;
4210;SDS011;2119;48.828;12.396;2023-02-20T16:03:36;2.20;;;1.43;;
4210;SDS011;2119;48.828;12.396;2023-02-20T16:08:36;4.25;;;2.22;;
4210;SDS011;2119;48.828;12.396;2023-02-20T16:13:38;5.27;;;4.50;;
4210;SDS011;2119;48.828;12.396;2023-02-20T16:18:39;2.43;;;2.23;;
4210;SDS011;2119;48.828;12.396;2023-02-20T16:23:40;4.15;;;2.88;;
4210;SDS011;2119;48.828;12.396;2023-02-20T16:28:42;5.00;;;2.10;;
4210;SDS011;2119;48.828;12.396;2023-02-20T16:33:42;3.40;;;3.07;;
4210;SDS011;2119;48.828;12.396;2023-02-20T16:38:42;5.50;;;3.53;;
4210;SDS011;2119;48.828;12.396;2023-02-20T16:43:43;8.38;;;5.50;;
4210;SDS011;2119;48.828;12.396;2023-02-20T16:48:44;14.27;;;10.15;;
4210;SDS011;2119;48.828;12.396;2023-02-20T16:53:48;7.60;;;6.87;;
4210;SDS011;2119;48.828;12.396;2023-02-20T16:58:48;5.10;;;4.47;;
4210;SDS011;2119;48.828;12.396;2023-02-20T17:03:48;6.05;;;5.07;;
4210;SDS011;2119;48.828;12.396;2023-02-20T17:08:48;4.83;;;3.87;;
4210;SDS011;2119;48.828;12.396;2023-02-20T17:13:49;3.50;;;3.20;;
4210;SDS011;2119;48.828;12.396;2023-02-20T17:18:49;4.33;;;3.93;;
4210;SDS011;2119;48.828;12.396;2023-02-20T17:23:49;6.83;;;5.43;;
4210;SDS011;2119;48.828;12.396;2023-02-20T17:28:49;18.33;;;10.90;;
4210;SDS011;2119;48.828;12.396;2023-02-20T17:33:50;6.85;;;6.15;;
4210;SDS011;2119;48.828;12.396;2023-02-20T17:38:50;7.88;;;6.00;;
4210;SDS011;2119;48.828;12.396;2023-02-20T17:43:50;6.70;;;4.57;;
4210;SDS011;2119;48.828;12.396;2023-02-20T17:48:50;8.00;;;4.77;;
4210;SDS011;2119;48.828;12.396;2023-02-20T17:53:52;7.00;;;5.03;;
4210;SDS011;2119;48.828;12.396;2023-02-20T17:58:52;5.67;;;5.17;;
4210;SDS011;2119;48.828;12.396;2023-02-20T18:03:53;13.60;;;7.28;;
4210;SDS011;2119;48.828;12.396;2023-02-20T18:08:54;12.37;;;8.43;;
4210;SDS011;2119;48.828;12.396;2023-02-20T18:13:55;13.27;;;9.87;;
4210;SDS011;2119;48.828;12.396;2023-02-20T18:18:55;11.57;;;8.53;;
4210;SDS011;2119;48.828;12.396;2023-02-20T18:23:56;10.57;;;7.45;;
4210;SDS011;2119;48.828;12.396;2023-02-20T18:28:56;5.70;;;3.90;;
4210;SDS011;2119;48.828;12.396;2023-02-20T18:33:57;3.23;;;2.70;;
4210;SDS011;2119;48.828;12.396;2023-02-20T18:38:58;5.57;;;3.37;;
4210;SDS011;2119;48.828;12.396;2023-02-20T18:43:58;8.23;;;6.15;;
4210;SDS011;2119;48.828;12.396;2023-02-20T18:48:59;14.10;;;11.25;;
4210;SDS011;2119;48.828;12.396;2023-02-20T18:54:01;14.27;;;12.77;;
4210;SDS011;2119;48.828;12.396;2023-02-20T18:59:01;14.70;;;11.77;;
4210;SDS011;2119;48.828;12.396;2023-02-20T19:04:03;9.50;;;8.50;;
4210;SDS011;2119;48.828;12.396;2023-02-20T19:09:07;8.10;;;7.40;;
4210;SDS011;2119;48.828;12.396;2023-02-20T19:14:08;9.90;;;7.20;;
4210;SDS011;2119;48.828;12.396;2023-02-20T19:19:08;9.13;;;5.67;;
4210;SDS011;2119;48.828;12.396;2023-02-20T19:24:12;8.73;;;7.80;;
4210;SDS011;2119;48.828;12.396;2023-02-20T19:29:13;19.13;;;11.70;;
4210;SDS011;2119;48.828;12.396;2023-02-20T19:34:13;7.10;;;6.40;;
4210;SDS011;2119;48.828;12.396;2023-02-20T19:39:14;4.70;;;4.30;;
4210;SDS011;2119;48.828;12.396;2023-02-20T19:44:14;5.28;;;4.32;;
4210;SDS011;2119;48.828;12.396;2023-02-20T19:49:16;6.10;;;4.90;;
4210;SDS011;2119;48.828;12.396;2023-02-20T19:54:20;49.80;;;27.57;;
4210;SDS011;2119;48.828;12.396;2023-02-20T19:59:21;26.40;;;16.37;;
4210;SDS011;2119;48.828;12.396;2023-02-20T20:04:34;42.93;;;21.00;;
4210;SDS011;2119;48.828;12.396;2023-02-20T20:09:34;40.10;;;18.37;;
4210;SDS011;2119;48.828;12.396;2023-02-20T20:14:35;27.33;;;12.95;;
4210;SDS011;2119;48.828;12.396;2023-02-20T20:19:37;8.20;;;6.03;;
4210;SDS011;2119;48.828;12.396;2023-02-20T20:24:37;10.20;;;7.03;;
4210;SDS011;2119;48.828;12.396;2023-02-20T20:29:38;9.83;;;6.93;;
4210;SDS011;2119;48.828;12.396;2023-02-20T20:34:41;13.47;;;8.10;;
4210;SDS011;2119;48.828;12.396;2023-02-20T20:39:53;6.13;;;4.50;;
4210;SDS011;2119;48.828;12.396;2023-02-20T20:44:57;6.90;;;6.20;;
4210;SDS011;2119;48.828;12.396;2023-02-20T20:49:58;11.87;;;8.27;;
4210;SDS011;2119;48.828;12.396;2023-02-20T21:00:24;11.60;;;6.47;;
4210;SDS011;2119;48.828;12.396;2023-02-20T21:05:26;9.93;;;4.60;;
4210;SDS011;2119;48.828;12.396;2023-02-20T21:10:38;5.20;;;4.00;;
4210;SDS011;2119;48.828;12.396;2023-02-20T21:15:38;5.63;;;5.10;;
4210;SDS011;2119;48.828;12.396;2023-02-20T21:20:42;6.55;;;5.95;;
4210;SDS011;2119;48.828;12.396;2023-02-20T21:25:42;6.90;;;6.13;;
4210;SDS011;2119;48.828;12.396;2023-02-20T21:30:42;9.50;;;6.87;;
4210;SDS011;2119;48.828;12.396;2023-02-20T21:35:42;49.80;;;21.35;;
4210;SDS011;2119;48.828;12.396;2023-02-20T21:40:43;20.45;;;11.40;;
4210;SDS011;2119;48.828;12.396;2023-02-20T21:45:43;19.00;;;11.30;;
4210;SDS011;2119;48.828;12.396;2023-02-20T21:50:44;19.63;;;10.60;;
4210;SDS011;2119;48.828;12.396;2023-02-20T21:55:44;10.15;;;7.00;;
4210;SDS011;2119;48.828;12.396;2023-02-20T22:00:44;7.30;;;5.22;;
4210;SDS011;2119;48.828;12.396;2023-02-20T22:05:45;4.47;;;4.13;;
4210;SDS011;2119;48.828;12.396;2023-02-20T22:10:45;9.77;;;7.22;;
4210;SDS011;2119;48.828;12.396;2023-02-20T22:16:04;12.00;;;8.77;;
4210;SDS011;2119;48.828;12.396;2023-02-20T22:21:23;8.10;;;7.30;;
4210;SDS011;2119;48.828;12.396;2023-02-20T22:26:43;9.77;;;7.70;;
4210;SDS011;2119;48.828;12.396;2023-02-20T22:32:02;8.90;;;5.40;;
4210;SDS011;2119;48.828;12.396;2023-02-20T22:37:20;7.40;;;6.17;;
4210;SDS011;2119;48.828;12.396;2023-02-20T22:42:39;6.00;;;5.40;;
4210;SDS011;2119;48.828;12.396;2023-02-20T22:47:58;7.47;;;5.30;;
4210;SDS011;2119;48.828;12.396;2023-02-20T22:53:17;5.67;;;5.00;;
4210;SDS011;2119;48.828;12.396;2023-02-20T22:58:36;7.20;;;6.50;;
4210;SDS011;2119;48.828;12.396;2023-02-20T23:03:55;6.33;;;5.73;;
4210;SDS011;2119;48.828;12.396;2023-02-20T23:09:14;4.97;;;4.20;;
4210;SDS011;2119;48.828;12.396;2023-02-20T23:14:33;11.73;;;5.67;;
4210;SDS011;2119;48.828;12.396;2023-02-20T23:19:52;8.30;;;7.40;;
4210;SDS011;2119;48.828;12.396;2023-02-20T23:25:11;8.67;;;6.30;;
4210;SDS011;2119;48.828;12.396;2023-02-20T23:30:30;6.63;;;5.97;;
4210;SDS011;2119;48.828;12.396;2023-02-20T23:35:50;7.00;;;5.20;;
4210;SDS011;2119;48.828;12.396;2023-02-20T23:41:09;8.50;;;5.80;;
4210;SDS011;2119;48.828;12.396;2023-02-20T23:46:28;7.37;;;5.30;;
4210;SDS011;2119;48.828;12.396;2023-02-20T23:51:47;7.03;;;5.67;;
4210;SDS011;2119;48.828;12.396;2023-02-20T23:57:06;5.60;;;5.10;;
